Take off
with your dreams!

Notre Discord Nous Rejoindre Connexion

 METAR ET TAF INFORMATION
METAR FOR DTTJ
ADDS - METARS form results

(0040 UTC 09 March 2021)
Data provider http://aviationweather.gov/metar/data/
 
METAR text: DTTJ 090030Z 06003KT 9999 SCT020 14/12 Q1013 NOSIG
Conditions at: DTTJ (DJERBA MELLITA , TN) observed 0030 UTC 09 March 2021
Temperature: 14.0°C (57°F)
Dewpoint: 12.0°C (54°F) [RH = 88%]
Pressure (altimeter): 29.91 inches Hg (1013.0 mb)
Winds: from the ENE (60 degrees) at 3 MPH (3 knots; 1.5 m/s)
Visibility: 6 or more miles (10+ km)
Ceiling: at least 12,000 feet AGL
Clouds: scattered clouds at 2000 feet AGL
Weather: no significant weather observed at this time

METAR text: DTTJ 090000Z 07003KT 9999 SCT020 15/12 Q1013 NOSIG
Conditions at: DTTJ (DJERBA MELLITA , TN) observed 0000 UTC 09 March 2021
Temperature: 15.0°C (59°F)
Dewpoint: 12.0°C (54°F) [RH = 82%]
Pressure (altimeter): 29.91 inches Hg (1013.0 mb)
Winds: from the ENE (70 degrees) at 3 MPH (3 knots; 1.5 m/s)
Visibility: 6 or more miles (10+ km)
Ceiling: at least 12,000 feet AGL
Clouds: scattered clouds at 2000 feet AGL
Weather: no significant weather observed at this time

Forecast for: DTTJ (DJERBA MELLITA , TN)
Text: TAF DTTJ 082300Z 0900/0924 05004KT 9999 SCT020
Forecast period: 0000 to 0700 UTC 09 March 2021
Forecast type: FROM: standard forecast or significant change
Winds: from the NE (50 degrees) at 5 MPH (4 knots; 2.1 m/s)
Visibility: 6 or more miles (10+ km)
Ceiling: at least 12,000 feet AGL
Clouds: scattered clouds at 2000 feet AGL
Weather: no significant weather forecast for this period
Text: BECMG 0907/0909 09006KT
Forecast period: 0700 UTC 09 March 2021 to 0000 UTC 10 March 2021
Forecast type: BECOMING: Conditions expected to become as follows by 0900 UTC 09 March 2021
Winds: from the E (90 degrees) at 7 MPH (6 knots; 3.1 m/s)
Visibility: 6 or more miles (10+ km)
Ceiling: at least 12,000 feet AGL
Clouds: scattered clouds at 2000 feet AGL
Weather: no significant weather forecast for this period

 AÉROPORT DE AÉROPORT

 INFORMATIONS DE PISTE
Piste 09 Longueur de la piste 10171 ft Largeur de la piste 148 ft
Élévation de la piste 9 ft Seuil de la piste déplacés 0 ft Runway heading 88
Piste 27 Longueur de la piste 10171 ft Largeur de la piste 148 ft
Élévation de la piste 18 ft Seuil de la piste déplacés 0 ft Runway heading 268

 AÉROPORT FRÉQUENCES
Type APP Nom DJERBA APP Féquence 120.3 MHZ
Type TWR Nom DJERBA TWR Féquence 118.15 MHZ

 SIDA DE NAVIGATION
Type VOR-DME Nom Djerba Féquence 112200 KHZ